sensor_id;sensor_type;location;lat;lon;timestamp;P1;P2;P0
46885;PMS5003;32622;48.202;11.326;2022-12-29T00:00:43;69;61;
46885;PMS5003;32622;48.202;11.326;2022-12-29T00:02:46;60;52;
46885;PMS5003;32622;48.202;11.326;2022-12-29T00:04:49;62;55;
46885;PMS5003;32622;48.202;11.326;2022-12-29T00:06:52;63;56;
46885;PMS5003;32622;48.202;11.326;2022-12-29T00:08:55;68;60;
46885;PMS5003;32622;48.202;11.326;2022-12-29T00:10:58;67;59;
46885;PMS5003;32622;48.202;11.326;2022-12-29T00:13:00;69;62;
46885;PMS5003;32622;48.202;11.326;2022-12-29T00:15:04;68;60;
46885;PMS5003;32622;48.202;11.326;2022-12-29T00:17:08;69;58;
46885;PMS5003;32622;48.202;11.326;2022-12-29T00:19:11;69;58;
46885;PMS5003;32622;48.202;11.326;2022-12-29T00:21:14;67;59;
46885;PMS5003;32622;48.202;11.326;2022-12-29T00:23:19;66;59;
46885;PMS5003;32622;48.202;11.326;2022-12-29T00:25:22;66;59;
46885;PMS5003;32622;48.202;11.326;2022-12-29T00:27:25;63;55;
46885;PMS5003;32622;48.202;11.326;2022-12-29T00:29:29;63;55;
46885;PMS5003;32622;48.202;11.326;2022-12-29T00:31:32;63;55;
46885;PMS5003;32622;48.202;11.326;2022-12-29T00:33:34;64;56;
46885;PMS5003;32622;48.202;11.326;2022-12-29T00:35:38;67;58;
46885;PMS5003;32622;48.202;11.326;2022-12-29T00:37:45;67;59;
46885;PMS5003;32622;48.202;11.326;2022-12-29T00:39:49;68;60;
46885;PMS5003;32622;48.202;11.326;2022-12-29T00:41:52;70;62;
46885;PMS5003;32622;48.202;11.326;2022-12-29T00:43:55;69;62;
46885;PMS5003;32622;48.202;11.326;2022-12-29T00:45:58;69;62;
46885;PMS5003;32622;48.202;11.326;2022-12-29T00:48:01;71;62;
46885;PMS5003;32622;48.202;11.326;2022-12-29T00:50:04;71;62;
46885;PMS5003;32622;48.202;11.326;2022-12-29T00:52:07;71;62;
46885;PMS5003;32622;48.202;11.326;2022-12-29T00:54:13;66;62;
46885;PMS5003;32622;48.202;11.326;2022-12-29T00:56:16;66;62;
46885;PMS5003;32622;48.202;11.326;2022-12-29T00:58:19;66;62;
46885;PMS5003;32622;48.202;11.326;2022-12-29T01:00:22;68;64;
46885;PMS5003;32622;48.202;11.326;2022-12-29T01:02:25;68;64;
46885;PMS5003;32622;48.202;11.326;2022-12-29T01:04:27;68;64;
46885;PMS5003;32622;48.202;11.326;2022-12-29T01:06:30;69;64;
46885;PMS5003;32622;48.202;11.326;2022-12-29T01:08:34;75;60;
46885;PMS5003;32622;48.202;11.326;2022-12-29T01:10:37;75;60;
46885;PMS5003;32622;48.202;11.326;2022-12-29T01:12:40;72;59;
46885;PMS5003;32622;48.202;11.326;2022-12-29T01:14:43;70;58;
46885;PMS5003;32622;48.202;11.326;2022-12-29T01:16:46;75;61;
46885;PMS5003;32622;48.202;11.326;2022-12-29T01:18:50;73;61;
46885;PMS5003;32622;48.202;11.326;2022-12-29T01:20:57;70;60;
46885;PMS5003;32622;48.202;11.326;2022-12-29T01:23:01;70;60;
46885;PMS5003;32622;48.202;11.326;2022-12-29T01:25:04;69;58;
46885;PMS5003;32622;48.202;11.326;2022-12-29T01:27:08;69;58;
46885;PMS5003;32622;48.202;11.326;2022-12-29T01:29:10;69;58;
46885;PMS5003;32622;48.202;11.326;2022-12-29T01:31:14;67;56;
46885;PMS5003;32622;48.202;11.326;2022-12-29T01:33:17;67;56;
46885;PMS5003;32622;48.202;11.326;2022-12-29T01:35:20;67;56;
46885;PMS5003;32622;48.202;11.326;2022-12-29T01:37:23;65;55;
46885;PMS5003;32622;48.202;11.326;2022-12-29T01:39:25;65;55;
46885;PMS5003;32622;48.202;11.326;2022-12-29T01:41:28;73;60;
46885;PMS5003;32622;48.202;11.326;2022-12-29T01:43:38;72;59;
46885;PMS5003;32622;48.202;11.326;2022-12-29T01:45:44;72;59;
46885;PMS5003;32622;48.202;11.326;2022-12-29T01:47:51;72;59;
46885;PMS5003;32622;48.202;11.326;2022-12-29T01:49:57;75;61;
46885;PMS5003;32622;48.202;11.326;2022-12-29T01:52:05;81;60;
46885;PMS5003;32622;48.202;11.326;2022-12-29T01:54:09;77;59;
46885;PMS5003;32622;48.202;11.326;2022-12-29T01:56:17;74;57;
46885;PMS5003;32622;48.202;11.326;2022-12-29T01:58:22;73;57;
46885;PMS5003;32622;48.202;11.326;2022-12-29T02:00:28;76;57;
46885;PMS5003;32622;48.202;11.326;2022-12-29T02:02:31;72;55;
46885;PMS5003;32622;48.202;11.326;2022-12-29T02:04:35;76;59;
46885;PMS5003;32622;48.202;11.326;2022-12-29T02:06:43;78;62;
46885;PMS5003;32622;48.202;11.326;2022-12-29T02:08:52;76;62;
46885;PMS5003;32622;48.202;11.326;2022-12-29T02:10:57;76;62;
46885;PMS5003;32622;48.202;11.326;2022-12-29T02:13:02;69;62;
46885;PMS5003;32622;48.202;11.326;2022-12-29T02:15:06;67;57;
46885;PMS5003;32622;48.202;11.326;2022-12-29T02:17:12;71;58;
46885;PMS5003;32622;48.202;11.326;2022-12-29T02:19:32;71;57;
46885;PMS5003;32622;48.202;11.326;2022-12-29T02:21:57;68;56;
46885;PMS5003;32622;48.202;11.326;2022-12-29T02:26:47;68;57;
46885;PMS5003;32622;48.202;11.326;2022-12-29T02:29:11;67;56;
46885;PMS5003;32622;48.202;11.326;2022-12-29T02:31:36;67;58;
46885;PMS5003;32622;48.202;11.326;2022-12-29T02:33:51;68;58;
46885;PMS5003;32622;48.202;11.326;2022-12-29T02:36:05;68;58;
46885;PMS5003;32622;48.202;11.326;2022-12-29T02:38:17;68;58;
46885;PMS5003;32622;48.202;11.326;2022-12-29T02:40:27;68;59;
46885;PMS5003;32622;48.202;11.326;2022-12-29T02:42:41;68;59;
46885;PMS5003;32622;48.202;11.326;2022-12-29T02:44:51;68;59;
46885;PMS5003;32622;48.202;11.326;2022-12-29T02:47:00;65;59;
46885;PMS5003;32622;48.202;11.326;2022-12-29T02:49:09;66;60;
46885;PMS5003;32622;48.202;11.326;2022-12-29T02:51:18;68;53;
46885;PMS5003;32622;48.202;11.326;2022-12-29T02:53:25;68;53;
46885;PMS5003;32622;48.202;11.326;2022-12-29T02:55:30;68;53;
46885;PMS5003;32622;48.202;11.326;2022-12-29T02:57:33;64;51;
46885;PMS5003;32622;48.202;11.326;2022-12-29T02:59:36;64;51;
46885;PMS5003;32622;48.202;11.326;2022-12-29T03:01:45;65;52;
46885;PMS5003;32622;48.202;11.326;2022-12-29T03:04:03;63;54;
46885;PMS5003;32622;48.202;11.326;2022-12-29T03:06:25;65;56;
46885;PMS5003;32622;48.202;11.326;2022-12-29T03:08:39;64;56;
46885;PMS5003;32622;48.202;11.326;2022-12-29T03:10:54;62;55;
46885;PMS5003;32622;48.202;11.326;2022-12-29T03:13:02;61;54;
46885;PMS5003;32622;48.202;11.326;2022-12-29T03:15:15;59;53;
46885;PMS5003;32622;48.202;11.326;2022-12-29T03:17:25;59;52;
46885;PMS5003;32622;48.202;11.326;2022-12-29T03:19:32;62;55;
46885;PMS5003;32622;48.202;11.326;2022-12-29T03:21:41;63;56;
46885;PMS5003;32622;48.202;11.326;2022-12-29T03:23:46;65;59;
46885;PMS5003;32622;48.202;11.326;2022-12-29T03:25:52;70;61;
46885;PMS5003;32622;48.202;11.326;2022-12-29T03:27:58;68;60;
46885;PMS5003;32622;48.202;11.326;2022-12-29T03:30:05;69;61;
46885;PMS5003;32622;48.202;11.326;2022-12-29T03:32:09;67;60;
46885;PMS5003;32622;48.202;11.326;2022-12-29T03:34:15;66;58;
46885;PMS5003;32622;48.202;11.326;2022-12-29T03:36:23;64;57;
46885;PMS5003;32622;48.202;11.326;2022-12-29T03:38:33;67;58;
46885;PMS5003;32622;48.202;11.326;2022-12-29T03:40:40;68;59;
46885;PMS5003;32622;48.202;11.326;2022-12-29T03:42:46;67;59;
46885;PMS5003;32622;48.202;11.326;2022-12-29T03:44:52;67;59;
46885;PMS5003;32622;48.202;11.326;2022-12-29T03:46:57;68;61;
46885;PMS5003;32622;48.202;11.326;2022-12-29T03:49:00;66;59;
46885;PMS5003;32622;48.202;11.326;2022-12-29T03:51:03;64;57;
46885;PMS5003;32622;48.202;11.326;2022-12-29T03:53:06;64;57;
46885;PMS5003;32622;48.202;11.326;2022-12-29T03:55:09;62;56;
46885;PMS5003;32622;48.202;11.326;2022-12-29T03:57:12;62;56;
46885;PMS5003;32622;48.202;11.326;2022-12-29T03:59:15;61;53;
46885;PMS5003;32622;48.202;11.326;2022-12-29T04:01:18;61;53;
46885;PMS5003;32622;48.202;11.326;2022-12-29T04:03:21;59;52;
46885;PMS5003;32622;48.202;11.326;2022-12-29T04:05:23;59;52;
46885;PMS5003;32622;48.202;11.326;2022-12-29T04:07:26;59;52;
46885;PMS5003;32622;48.202;11.326;2022-12-29T04:09:29;56;51;
46885;PMS5003;32622;48.202;11.326;2022-12-29T04:11:32;56;51;
46885;PMS5003;32622;48.202;11.326;2022-12-29T04:13:34;61;54;
46885;PMS5003;32622;48.202;11.326;2022-12-29T04:15:37;69;54;
46885;PMS5003;32622;48.202;11.326;2022-12-29T04:17:40;68;55;
46885;PMS5003;32622;48.202;11.326;2022-12-29T04:19:43;68;54;
46885;PMS5003;32622;48.202;11.326;2022-12-29T04:21:47;72;56;
46885;PMS5003;32622;48.202;11.326;2022-12-29T04:23:50;72;55;
46885;PMS5003;32622;48.202;11.326;2022-12-29T04:25:52;70;55;
46885;PMS5003;32622;48.202;11.326;2022-12-29T04:27:55;71;56;
46885;PMS5003;32622;48.202;11.326;2022-12-29T04:29:58;74;58;
46885;PMS5003;32622;48.202;11.326;2022-12-29T04:32:01;64;58;
46885;PMS5003;32622;48.202;11.326;2022-12-29T04:34:04;63;58;
46885;PMS5003;32622;48.202;11.326;2022-12-29T04:36:06;60;58;
46885;PMS5003;32622;48.202;11.326;2022-12-29T04:38:10;58;56;
46885;PMS5003;32622;48.202;11.326;2022-12-29T04:40:13;57;55;
46885;PMS5003;32622;48.202;11.326;2022-12-29T04:42:15;57;55;
46885;PMS5003;32622;48.202;11.326;2022-12-29T04:44:18;57;55;
46885;PMS5003;32622;48.202;11.326;2022-12-29T04:46:21;55;54;
46885;PMS5003;32622;48.202;11.326;2022-12-29T04:48:24;55;54;
46885;PMS5003;32622;48.202;11.326;2022-12-29T04:50:27;55;54;
46885;PMS5003;32622;48.202;11.326;2022-12-29T04:52:30;57;53;
46885;PMS5003;32622;48.202;11.326;2022-12-29T04:54:33;57;53;
46885;PMS5003;32622;48.202;11.326;2022-12-29T04:56:35;57;53;
46885;PMS5003;32622;48.202;11.326;2022-12-29T04:58:38;58;54;
46885;PMS5003;32622;48.202;11.326;2022-12-29T05:00:41;58;54;
46885;PMS5003;32622;48.202;11.326;2022-12-29T05:02:44;58;54;
46885;PMS5003;32622;48.202;11.326;2022-12-29T05:04:47;63;57;
46885;PMS5003;32622;48.202;11.326;2022-12-29T05:06:49;62;56;
46885;PMS5003;32622;48.202;11.326;2022-12-29T05:08:52;64;57;
46885;PMS5003;32622;48.202;11.326;2022-12-29T05:10:55;63;53;
46885;PMS5003;32622;48.202;11.326;2022-12-29T05:12:58;64;53;
46885;PMS5003;32622;48.202;11.326;2022-12-29T05:15:01;62;52;
46885;PMS5003;32622;48.202;11.326;2022-12-29T05:17:04;61;52;
46885;PMS5003;32622;48.202;11.326;2022-12-29T05:19:06;66;56;
46885;PMS5003;32622;48.202;11.326;2022-12-29T05:21:09;66;56;
46885;PMS5003;32622;48.202;11.326;2022-12-29T05:23:12;65;53;
46885;PMS5003;32622;48.202;11.326;2022-12-29T05:25:16;69;53;
46885;PMS5003;32622;48.202;11.326;2022-12-29T05:27:18;70;53;
46885;PMS5003;32622;48.202;11.326;2022-12-29T05:29:21;70;53;
46885;PMS5003;32622;48.202;11.326;2022-12-29T05:31:24;69;52;
46885;PMS5003;32622;48.202;11.326;2022-12-29T05:33:27;72;53;
46885;PMS5003;32622;48.202;11.326;2022-12-29T05:35:30;71;53;
46885;PMS5003;32622;48.202;11.326;2022-12-29T05:37:34;61;52;
46885;PMS5003;32622;48.202;11.326;2022-12-29T05:39:37;61;54;
46885;PMS5003;32622;48.202;11.326;2022-12-29T05:41:39;59;50;
46885;PMS5003;32622;48.202;11.326;2022-12-29T05:43:42;60;51;
46885;PMS5003;32622;48.202;11.326;2022-12-29T05:45:48;60;51;
46885;PMS5003;32622;48.202;11.326;2022-12-29T05:47:51;61;53;
46885;PMS5003;32622;48.202;11.326;2022-12-29T05:49:54;59;51;
46885;PMS5003;32622;48.202;11.326;2022-12-29T05:51:56;60;53;
46885;PMS5003;32622;48.202;11.326;2022-12-29T05:53:59;59;52;
46885;PMS5003;32622;48.202;11.326;2022-12-29T05:56:02;60;53;
46885;PMS5003;32622;48.202;11.326;2022-12-29T05:58:05;61;53;
46885;PMS5003;32622;48.202;11.326;2022-12-29T06:00:09;65;56;
46885;PMS5003;32622;48.202;11.326;2022-12-29T06:02:13;61;55;
46885;PMS5003;32622;48.202;11.326;2022-12-29T06:04:15;61;54;
46885;PMS5003;32622;48.202;11.326;2022-12-29T06:06:18;61;54;
46885;PMS5003;32622;48.202;11.326;2022-12-29T06:08:21;60;53;
46885;PMS5003;32622;48.202;11.326;2022-12-29T06:10:24;70;60;
46885;PMS5003;32622;48.202;11.326;2022-12-29T06:12:27;69;59;
46885;PMS5003;32622;48.202;11.326;2022-12-29T06:14:29;69;59;
46885;PMS5003;32622;48.202;11.326;2022-12-29T06:16:32;72;61;
46885;PMS5003;32622;48.202;11.326;2022-12-29T06:18:35;72;61;
46885;PMS5003;32622;48.202;11.326;2022-12-29T06:20:38;72;61;
46885;PMS5003;32622;48.202;11.326;2022-12-29T06:22:40;74;60;
46885;PMS5003;32622;48.202;11.326;2022-12-29T06:24:44;75;61;
46885;PMS5003;32622;48.202;11.326;2022-12-29T06:26:46;76;61;
46885;PMS5003;32622;48.202;11.326;2022-12-29T06:28:49;76;61;
46885;PMS5003;32622;48.202;11.326;2022-12-29T06:30:52;73;60;
46885;PMS5003;32622;48.202;11.326;2022-12-29T06:32:55;69;58;
46885;PMS5003;32622;48.202;11.326;2022-12-29T06:34:57;67;56;
46885;PMS5003;32622;48.202;11.326;2022-12-29T06:37:00;64;55;
46885;PMS5003;32622;48.202;11.326;2022-12-29T06:39:03;66;54;
46885;PMS5003;32622;48.202;11.326;2022-12-29T06:41:07;64;53;
46885;PMS5003;32622;48.202;11.326;2022-12-29T06:43:09;62;52;
46885;PMS5003;32622;48.202;11.326;2022-12-29T06:45:12;61;51;
46885;PMS5003;32622;48.202;11.326;2022-12-29T06:47:15;61;51;
46885;PMS5003;32622;48.202;11.326;2022-12-29T06:49:18;60;51;
46885;PMS5003;32622;48.202;11.326;2022-12-29T06:51:21;60;51;
46885;PMS5003;32622;48.202;11.326;2022-12-29T06:53:24;60;51;
46885;PMS5003;32622;48.202;11.326;2022-12-29T06:55:27;57;50;
46885;PMS5003;32622;48.202;11.326;2022-12-29T06:57:30;57;50;
46885;PMS5003;32622;48.202;11.326;2022-12-29T06:59:33;58;51;
46885;PMS5003;32622;48.202;11.326;2022-12-29T07:01:35;58;48;
46885;PMS5003;32622;48.202;11.326;2022-12-29T07:03:40;58;48;
46885;PMS5003;32622;48.202;11.326;2022-12-29T07:05:44;58;48;
46885;PMS5003;32622;48.202;11.326;2022-12-29T07:07:47;58;48;
46885;PMS5003;32622;48.202;11.326;2022-12-29T07:09:49;58;48;
46885;PMS5003;32622;48.202;11.326;2022-12-29T07:11:52;58;48;
46885;PMS5003;32622;48.202;11.326;2022-12-29T07:13:55;54;47;
46885;PMS5003;32622;48.202;11.326;2022-12-29T07:15:57;65;52;
46885;PMS5003;32622;48.202;11.326;2022-12-29T07:18:00;64;51;
46885;PMS5003;32622;48.202;11.326;2022-12-29T07:20:03;64;51;
46885;PMS5003;32622;48.202;11.326;2022-12-29T07:22:08;63;51;
46885;PMS5003;32622;48.202;11.326;2022-12-29T07:24:11;63;51;
46885;PMS5003;32622;48.202;11.326;2022-12-29T07:26:15;63;51;
46885;PMS5003;32622;48.202;11.326;2022-12-29T07:28:17;65;53;
46885;PMS5003;32622;48.202;11.326;2022-12-29T07:30:20;61;51;
46885;PMS5003;32622;48.202;11.326;2022-12-29T07:32:23;62;50;
46885;PMS5003;32622;48.202;11.326;2022-12-29T07:34:26;63;50;
46885;PMS5003;32622;48.202;11.326;2022-12-29T07:36:29;65;52;
46885;PMS5003;32622;48.202;11.326;2022-12-29T07:38:32;66;52;
46885;PMS5003;32622;48.202;11.326;2022-12-29T07:40:35;61;49;
46885;PMS5003;32622;48.202;11.326;2022-12-29T07:42:38;63;52;
46885;PMS5003;32622;48.202;11.326;2022-12-29T07:44:41;61;52;
46885;PMS5003;32622;48.202;11.326;2022-12-29T07:46:44;63;55;
46885;PMS5003;32622;48.202;11.326;2022-12-29T07:48:47;59;48;
46885;PMS5003;32622;48.202;11.326;2022-12-29T07:50:50;59;48;
46885;PMS5003;32622;48.202;11.326;2022-12-29T07:52:54;58;47;
46885;PMS5003;32622;48.202;11.326;2022-12-29T07:54:57;56;47;
46885;PMS5003;32622;48.202;11.326;2022-12-29T07:57:01;56;47;
46885;PMS5003;32622;48.202;11.326;2022-12-29T07:59:05;56;47;
46885;PMS5003;32622;48.202;11.326;2022-12-29T08:01:09;56;45;
46885;PMS5003;32622;48.202;11.326;2022-12-29T08:03:12;56;45;
46885;PMS5003;32622;48.202;11.326;2022-12-29T08:05:16;56;45;
46885;PMS5003;32622;48.202;11.326;2022-12-29T08:07:20;56;46;
46885;PMS5003;32622;48.202;11.326;2022-12-29T08:09:23;56;46;
46885;PMS5003;32622;48.202;11.326;2022-12-29T08:11:28;56;46;
46885;PMS5003;32622;48.202;11.326;2022-12-29T08:13:32;55;46;
46885;PMS5003;32622;48.202;11.326;2022-12-29T08:15:34;55;46;
46885;PMS5003;32622;48.202;11.326;2022-12-29T08:17:39;55;46;
46885;PMS5003;32622;48.202;11.326;2022-12-29T08:19:43;54;46;
46885;PMS5003;32622;48.202;11.326;2022-12-29T08:21:48;42;39;
46885;PMS5003;32622;48.202;11.326;2022-12-29T08:23:53;42;39;
46885;PMS5003;32622;48.202;11.326;2022-12-29T08:25:58;42;39;
46885;PMS5003;32622;48.202;11.326;2022-12-29T08:28:01;41;39;
46885;PMS5003;32622;48.202;11.326;2022-12-29T08:30:05;41;39;
46885;PMS5003;32622;48.202;11.326;2022-12-29T08:32:09;41;39;
46885;PMS5003;32622;48.202;11.326;2022-12-29T08:34:13;40;37;
46885;PMS5003;32622;48.202;11.326;2022-12-29T08:36:16;40;37;
46885;PMS5003;32622;48.202;11.326;2022-12-29T08:38:19;40;37;
46885;PMS5003;32622;48.202;11.326;2022-12-29T08:40:24;40;38;
46885;PMS5003;32622;48.202;11.326;2022-12-29T08:42:29;40;38;
46885;PMS5003;32622;48.202;11.326;2022-12-29T08:44:43;40;38;
46885;PMS5003;32622;48.202;11.326;2022-12-29T08:46:51;40;38;
46885;PMS5003;32622;48.202;11.326;2022-12-29T08:48:54;40;38;
46885;PMS5003;32622;48.202;11.326;2022-12-29T08:50:57;40;38;
46885;PMS5003;32622;48.202;11.326;2022-12-29T08:53:02;40;38;
46885;PMS5003;32622;48.202;11.326;2022-12-29T08:55:05;54;43;
46885;PMS5003;32622;48.202;11.326;2022-12-29T08:57:08;52;40;
46885;PMS5003;32622;48.202;11.326;2022-12-29T08:59:11;52;42;
46885;PMS5003;32622;48.202;11.326;2022-12-29T09:01:14;51;41;
46885;PMS5003;32622;48.202;11.326;2022-12-29T09:03:17;52;42;
46885;PMS5003;32622;48.202;11.326;2022-12-29T09:05:20;51;40;
46885;PMS5003;32622;48.202;11.326;2022-12-29T09:07:22;53;41;
46885;PMS5003;32622;48.202;11.326;2022-12-29T09:09:25;50;41;
46885;PMS5003;32622;48.202;11.326;2022-12-29T09:11:28;49;40;
46885;PMS5003;32622;48.202;11.326;2022-12-29T09:13:31;48;41;
46885;PMS5003;32622;48.202;11.326;2022-12-29T09:15:34;48;41;
46885;PMS5003;32622;48.202;11.326;2022-12-29T09:17:37;49;42;
46885;PMS5003;32622;48.202;11.326;2022-12-29T09:19:39;49;41;
46885;PMS5003;32622;48.202;11.326;2022-12-29T09:21:42;49;41;
46885;PMS5003;32622;48.202;11.326;2022-12-29T09:23:45;49;41;
46885;PMS5003;32622;48.202;11.326;2022-12-29T09:25:49;47;41;
46885;PMS5003;32622;48.202;11.326;2022-12-29T09:27:52;45;41;
46885;PMS5003;32622;48.202;11.326;2022-12-29T09:34:48;66;54;
46885;PMS5003;32622;48.202;11.326;2022-12-29T09:37:45;65;58;
46885;PMS5003;32622;48.202;11.326;2022-12-29T09:39:48;64;57;
46885;PMS5003;32622;48.202;11.326;2022-12-29T09:41:55;64;57;
46885;PMS5003;32622;48.202;11.326;2022-12-29T09:44:12;66;57;
46885;PMS5003;32622;48.202;11.326;2022-12-29T09:46:21;66;57;
46885;PMS5003;32622;48.202;11.326;2022-12-29T09:48:29;66;57;
46885;PMS5003;32622;48.202;11.326;2022-12-29T09:50:37;65;56;
46885;PMS5003;32622;48.202;11.326;2022-12-29T09:52:43;68;56;
46885;PMS5003;32622;48.202;11.326;2022-12-29T09:54:52;66;55;
46885;PMS5003;32622;48.202;11.326;2022-12-29T09:56:59;52;48;
46885;PMS5003;32622;48.202;11.326;2022-12-29T09:59:04;53;48;
46885;PMS5003;32622;48.202;11.326;2022-12-29T10:01:14;53;48;
46885;PMS5003;32622;48.202;11.326;2022-12-29T10:03:26;53;48;
46885;PMS5003;32622;48.202;11.326;2022-12-29T10:05:39;51;47;
46885;PMS5003;32622;48.202;11.326;2022-12-29T10:07:50;51;47;
46885;PMS5003;32622;48.202;11.326;2022-12-29T10:10:01;51;47;
46885;PMS5003;32622;48.202;11.326;2022-12-29T10:12:16;51;47;
46885;PMS5003;32622;48.202;11.326;2022-12-29T10:14:38;51;47;
46885;PMS5003;32622;48.202;11.326;2022-12-29T10:16:56;51;47;
46885;PMS5003;32622;48.202;11.326;2022-12-29T10:19:11;53;48;
46885;PMS5003;32622;48.202;11.326;2022-12-29T10:21:28;53;48;
46885;PMS5003;32622;48.202;11.326;2022-12-29T10:23:42;53;48;
46885;PMS5003;32622;48.202;11.326;2022-12-29T10:26:17;53;48;
46885;PMS5003;32622;48.202;11.326;2022-12-29T10:30:44;50;44;
46885;PMS5003;32622;48.202;11.326;2022-12-29T10:33:19;50;44;
46885;PMS5003;32622;48.202;11.326;2022-12-29T10:35:29;50;44;
46885;PMS5003;32622;48.202;11.326;2022-12-29T10:37:38;50;44;
46885;PMS5003;32622;48.202;11.326;2022-12-29T10:39:55;48;43;
46885;PMS5003;32622;48.202;11.326;2022-12-29T10:42:01;48;43;
46885;PMS5003;32622;48.202;11.326;2022-12-29T10:46:17;50;44;
46885;PMS5003;32622;48.202;11.326;2022-12-29T10:48:33;50;44;
46885;PMS5003;32622;48.202;11.326;2022-12-29T10:50:37;49;43;
46885;PMS5003;32622;48.202;11.326;2022-12-29T10:52:42;58;49;
46885;PMS5003;32622;48.202;11.326;2022-12-29T10:54:48;58;49;
46885;PMS5003;32622;48.202;11.326;2022-12-29T10:59:38;57;48;
46885;PMS5003;32622;48.202;11.326;2022-12-29T11:01:54;57;48;
46885;PMS5003;32622;48.202;11.326;2022-12-29T11:04:03;55;46;
46885;PMS5003;32622;48.202;11.326;2022-12-29T11:06:10;55;46;
46885;PMS5003;32622;48.202;11.326;2022-12-29T11:08:21;55;46;
46885;PMS5003;32622;48.202;11.326;2022-12-29T11:10:34;55;46;
46885;PMS5003;32622;48.202;11.326;2022-12-29T11:12:39;55;46;
46885;PMS5003;32622;48.202;11.326;2022-12-29T11:14:42;55;46;
46885;PMS5003;32622;48.202;11.326;2022-12-29T11:16:50;56;46;
46885;PMS5003;32622;48.202;11.326;2022-12-29T11:18:59;56;46;
46885;PMS5003;32622;48.202;11.326;2022-12-29T11:21:26;56;46;
46885;PMS5003;32622;48.202;11.326;2022-12-29T11:23:38;59;48;
46885;PMS5003;32622;48.202;11.326;2022-12-29T11:25:44;59;48;
46885;PMS5003;32622;48.202;11.326;2022-12-29T11:27:55;60;55;
46885;PMS5003;32622;48.202;11.326;2022-12-29T11:30:01;62;57;
46885;PMS5003;32622;48.202;11.326;2022-12-29T11:32:10;62;57;
46885;PMS5003;32622;48.202;11.326;2022-12-29T11:34:20;62;57;
46885;PMS5003;32622;48.202;11.326;2022-12-29T11:36:25;61;56;
46885;PMS5003;32622;48.202;11.326;2022-12-29T11:38:32;59;54;
46885;PMS5003;32622;48.202;11.326;2022-12-29T11:40:40;62;55;
46885;PMS5003;32622;48.202;11.326;2022-12-29T11:42:47;64;57;
46885;PMS5003;32622;48.202;11.326;2022-12-29T11:44:53;62;58;
46885;PMS5003;32622;48.202;11.326;2022-12-29T11:46:56;64;58;
46885;PMS5003;32622;48.202;11.326;2022-12-29T11:49:00;64;58;
46885;PMS5003;32622;48.202;11.326;2022-12-29T11:51:05;64;58;
46885;PMS5003;32622;48.202;11.326;2022-12-29T11:53:14;64;58;
46885;PMS5003;32622;48.202;11.326;2022-12-29T11:55:23;64;58;
46885;PMS5003;32622;48.202;11.326;2022-12-29T11:57:29;64;58;
46885;PMS5003;32622;48.202;11.326;2022-12-29T11:59:38;64;58;
46885;PMS5003;32622;48.202;11.326;2022-12-29T12:01:44;62;54;
46885;PMS5003;32622;48.202;11.326;2022-12-29T12:03:51;62;54;
46885;PMS5003;32622;48.202;11.326;2022-12-29T12:06:01;62;54;
46885;PMS5003;32622;48.202;11.326;2022-12-29T12:08:09;62;54;
46885;PMS5003;32622;48.202;11.326;2022-12-29T12:10:18;62;54;
46885;PMS5003;32622;48.202;11.326;2022-12-29T12:12:30;62;54;
46885;PMS5003;32622;48.202;11.326;2022-12-29T12:14:41;62;54;
46885;PMS5003;32622;48.202;11.326;2022-12-29T12:16:53;62;54;
46885;PMS5003;32622;48.202;11.326;2022-12-29T12:19:03;62;54;
46885;PMS5003;32622;48.202;11.326;2022-12-29T12:21:20;62;54;
46885;PMS5003;32622;48.202;11.326;2022-12-29T12:23:30;63;55;
46885;PMS5003;32622;48.202;11.326;2022-12-29T12:25:42;63;55;
46885;PMS5003;32622;48.202;11.326;2022-12-29T12:27:53;63;55;
46885;PMS5003;32622;48.202;11.326;2022-12-29T12:30:02;64;56;
46885;PMS5003;32622;48.202;11.326;2022-12-29T12:32:11;64;56;
46885;PMS5003;32622;48.202;11.326;2022-12-29T12:34:20;64;56;
46885;PMS5003;32622;48.202;11.326;2022-12-29T12:36:37;56;50;
46885;PMS5003;32622;48.202;11.326;2022-12-29T12:38:54;56;50;
46885;PMS5003;32622;48.202;11.326;2022-12-29T12:41:04;54;49;
46885;PMS5003;32622;48.202;11.326;2022-12-29T12:43:17;54;49;
46885;PMS5003;32622;48.202;11.326;2022-12-29T12:45:40;54;49;
46885;PMS5003;32622;48.202;11.326;2022-12-29T12:47:52;50;46;
46885;PMS5003;32622;48.202;11.326;2022-12-29T12:50:10;48;46;
46885;PMS5003;32622;48.202;11.326;2022-12-29T12:52:22;49;46;
46885;PMS5003;32622;48.202;11.326;2022-12-29T12:54:37;48;44;
46885;PMS5003;32622;48.202;11.326;2022-12-29T12:56:56;47;44;
46885;PMS5003;32622;48.202;11.326;2022-12-29T12:59:13;47;43;
46885;PMS5003;32622;48.202;11.326;2022-12-29T13:01:28;47;43;
46885;PMS5003;32622;48.202;11.326;2022-12-29T13:03:47;49;45;
46885;PMS5003;32622;48.202;11.326;2022-12-29T13:06:05;49;46;
46885;PMS5003;32622;48.202;11.326;2022-12-29T13:08:25;50;46;
46885;PMS5003;32622;48.202;11.326;2022-12-29T13:11:01;51;47;
46885;PMS5003;32622;48.202;11.326;2022-12-29T13:13:16;62;55;
46885;PMS5003;32622;48.202;11.326;2022-12-29T13:15:39;62;55;
46885;PMS5003;32622;48.202;11.326;2022-12-29T13:17:49;64;56;
46885;PMS5003;32622;48.202;11.326;2022-12-29T13:20:02;65;55;
46885;PMS5003;32622;48.202;11.326;2022-12-29T13:22:21;61;53;
46885;PMS5003;32622;48.202;11.326;2022-12-29T13:24:33;63;54;
46885;PMS5003;32622;48.202;11.326;2022-12-29T13:26:47;62;53;
46885;PMS5003;32622;48.202;11.326;2022-12-29T13:28:56;60;51;
46885;PMS5003;32622;48.202;11.326;2022-12-29T13:31:09;60;51;
46885;PMS5003;32622;48.202;11.326;2022-12-29T13:33:20;60;51;
46885;PMS5003;32622;48.202;11.326;2022-12-29T13:35:32;62;51;
46885;PMS5003;32622;48.202;11.326;2022-12-29T13:37:46;58;48;
46885;PMS5003;32622;48.202;11.326;2022-12-29T13:39:56;60;49;
46885;PMS5003;32622;48.202;11.326;2022-12-29T13:42:03;62;49;
46885;PMS5003;32622;48.202;11.326;2022-12-29T13:44:07;59;48;
46885;PMS5003;32622;48.202;11.326;2022-12-29T13:46:20;55;46;
46885;PMS5003;32622;48.202;11.326;2022-12-29T13:48:29;70;62;
46885;PMS5003;32622;48.202;11.326;2022-12-29T13:50:39;70;62;
46885;PMS5003;32622;48.202;11.326;2022-12-29T13:52:44;70;62;
46885;PMS5003;32622;48.202;11.326;2022-12-29T13:54:55;69;62;
46885;PMS5003;32622;48.202;11.326;2022-12-29T13:57:05;69;62;
46885;PMS5003;32622;48.202;11.326;2022-12-29T13:59:16;69;62;
46885;PMS5003;32622;48.202;11.326;2022-12-29T14:01:27;67;61;